Pagrindinis puslapis
METAR-TAF:

METAR-TAF

Oro uostai :

Kunmingas, Kinija

platuma: 25-01N, ilguma: 102-41E, Aukštis: 1892 m

Dabartinis oras

Ataskaita buvo paskelbta 41 minutes, ne 21:00 UTC
Vėjas 6 kt iš Pietų/Pietvakarių
Temperatūra 15°C
Drėgmė 94%
Slėgis 1021 hPa
Matomumas 10 km arba daugiau
nėra debesų žemiau 1500 m ir nėra kamuolinių lietaus debesų

METAR: ZPPP 302100Z 21003MPS CAVOK 15/14 Q1021 NOSIG

Laikas: 05:41 (21:41 UTC)

Prognozė

Ataskaita buvo paskelbta 6 valandos ir 38 minutes, ne 15:03 UTC
Prognozė galioja nuo 30 metu 18 UTC su 31 metu 18 UTC
Vėjas 12 kt iš Pietvakarių
Matomumas 10 km arba daugiau
Išsisklaidę debesys ne aukštis 2600 ft

TAF: ZPPP 301503Z 3018/3118 23006MPS 9999 SCT026 TX26/3108Z TN13/3023Z

Orai ataskaitas ir orų prognozės (METAR, TAF).

turimą stotys yra geltonos ir raudonos taškus žemėlapyje.

Perkelti pele per norėdami pamatyti stoties vardą.

Tada spustelėkite, norėdami matyti oro stebėjimo ir prognozės.

Norėdami pakeisti žemėlapį: spustelėkite ant žalios mygtukų su juodo kryžiaus žemyn,; žalią mygtuką su brūkšneliu, jei norite nutolinti; arba žalių rodyklių gretimoms žemėlapius.


METAR-TAF: